NOAA Web Site Link Tides and Currents Home Page Transparent placeholder image

PORTS® Data Listing: 8545240 Philadelphia, PA

CO-OPS RAW PORTS DATA

************************      PRELIMINARY DATA      ************************** 

     THIS RAW DATA HAS NOT BEEN SUBJECT TO THE NATIONAL OCEAN SERVICE'S        
     QUALITY CONTROL OR QUALITY ASSURANCE PROCEDURES AND DOES NOT MEET         
     THE CRITERIA AND STANDARDS OF OFFICIAL NATIONAL OCEAN SERVICE             
     DATA.  IT IS RELEASED FOR LIMITED PUBLIC USE AS PRELIMINARY DATA TO       
     BE USED ONLY WITH APPROPRIATE CAUTION.                                    

************************      PRELIMINARY DATA      ************************** 


       CD   -   Calendar date
       T    -   Time
       TZ   -   Timezone
       PW   -   Predicted water level (feet above MLLW)
       OW   -   Observed water level (feet above MLLW)
       WS   -   Wind speed (knots)
       WD   -   Wind direction (degrees true)
       WG   -   Wind gust (knots)
       AT   -   Air temperature (degrees farenheit)
       WT   -   Water temperature (degrees farenheit)
       AP   -   Air pressure (millibars)
       SA   -   Salinty (PSU - Practical Salinity Units)
       SG   -   Specific gravity
       RH   -   Relative humidity
       AG   -   Air gap (feet)
       VI   -   Visibility (nautical miles)

       ** NOTE **
       A variable that has its data fields filled with "9"s, indicates that
       data was not collected for that sample period.
       **********


STATION NAME: Philadelphia (8545240)
****************************************************************************************************
    CD       T    TZ    PW     OW    WS   WD   WG    AT    WT    AP    SA    SG     RH    AG   VI
****************************************************************************************************
2018/10/18 22:30 EDT    6.49   5.90 -999 -999 -999  47.3  58.3 1027.9 -9.9 -9.999 -99.9 -99.99 -9.99
2018/10/18 22:36 EDT    6.43   5.83 -999 -999 -999  47.5  58.5 1027.9 -9.9 -9.999 -99.9 -99.99 -9.99
2018/10/18 22:42 EDT    6.37   5.76 -999 -999 -999  47.3  58.5 1027.9 -9.9 -9.999 -99.9 -99.99 -9.99
2018/10/18 22:48 EDT    6.29   5.68 -999 -999 -999  46.9  58.5 1027.9 -9.9 -9.999 -99.9 -99.99 -9.99
2018/10/18 22:54 EDT    6.21   5.60 -999 -999 -999  47.3  58.5 1027.9 -9.9 -9.999 -99.9 -99.99 -9.99
2018/10/18 23:00 EDT    6.13   5.52 -999 -999 -999  47.5  58.5 1027.8 -9.9 -9.999 -99.9 -99.99 -9.99
2018/10/18 23:06 EDT    6.04   5.42 -999 -999 -999  47.5  58.5 1027.8 -9.9 -9.999 -99.9 -99.99 -9.99
2018/10/18 23:12 EDT    5.95   5.34 -999 -999 -999  46.9  58.5 1027.7 -9.9 -9.999 -99.9 -99.99 -9.99
2018/10/18 23:18 EDT    5.85   5.23 -999 -999 -999  46.8  58.5 1027.8 -9.9 -9.999 -99.9 -99.99 -9.99
2018/10/18 23:24 EDT    5.75   5.12 -999 -999 -999  46.6  58.5 1027.8 -9.9 -9.999 -99.9 -99.99 -9.99
2018/10/18 23:30 EDT    5.65   5.02 -999 -999 -999  46.4  58.5 1027.7 -9.9 -9.999 -99.9 -99.99 -9.99
2018/10/18 23:36 EDT    5.54   4.91 -999 -999 -999  46.2  58.5 1027.7 -9.9 -9.999 -99.9 -99.99 -9.99
2018/10/18 23:42 EDT    5.44   4.81 -999 -999 -999  46.0  58.5 1027.7 -9.9 -9.999 -99.9 -99.99 -9.99
2018/10/18 23:48 EDT    5.33   4.71 -999 -999 -999  45.9  58.5 1027.6 -9.9 -9.999 -99.9 -99.99 -9.99
2018/10/18 23:54 EDT    5.22   4.60 -999 -999 -999  45.7  58.5 1027.6 -9.9 -9.999 -99.9 -99.99 -9.99
2018/10/19 00:00 EDT    5.11   4.49 -999 -999 -999  45.5  58.5 1027.5 -9.9 -9.999 -99.9 -99.99 -9.99
2018/10/19 00:06 EDT    5.00   4.38 -999 -999 -999  45.3  58.5 1027.4 -9.9 -9.999 -99.9 -99.99 -9.99
2018/10/19 00:12 EDT    4.88   4.28 -999 -999 -999  45.3  58.5 1027.4 -9.9 -9.999 -99.9 -99.99 -9.99
2018/10/19 00:18 EDT    4.77   4.17 -999 -999 -999  45.3  58.5 1027.3 -9.9 -9.999 -99.9 -99.99 -9.99
2018/10/19 00:24 EDT    4.66   4.06 -999 -999 -999  45.5  58.5 1027.3 -9.9 -9.999 -99.9 -99.99 -9.99
2018/10/19 00:30 EDT    4.54   3.96 -999 -999 -999  45.5  58.5 1027.2 -9.9 -9.999 -99.9 -99.99 -9.99
2018/10/19 00:36 EDT    4.43   3.86 -999 -999 -999  45.5  58.5 1027.3 -9.9 -9.999 -99.9 -99.99 -9.99
2018/10/19 00:42 EDT    4.32   3.74 -999 -999 -999  45.3  58.5 1027.2 -9.9 -9.999 -99.9 -99.99 -9.99
2018/10/19 00:48 EDT    4.20   3.64 -999 -999 -999  45.5  58.5 1027.3 -9.9 -9.999 -99.9 -99.99 -9.99
2018/10/19 00:54 EDT    4.09   3.53 -999 -999 -999  45.5  58.6 1027.4 -9.9 -9.999 -99.9 -99.99 -9.99
2018/10/19 01:00 EDT    3.98   3.42 -999 -999 -999  45.5  58.6 1027.4 -9.9 -9.999 -99.9 -99.99 -9.99
2018/10/19 01:06 EDT    3.87   3.31 -999 -999 -999  45.3  58.6 1027.4 -9.9 -9.999 -99.9 -99.99 -9.99
2018/10/19 01:12 EDT    3.76   3.21 -999 -999 -999  45.3  58.6 1027.4 -9.9 -9.999 -99.9 -99.99 -9.99
2018/10/19 01:18 EDT    3.65   3.09 -999 -999 -999  45.3  58.6 1027.4 -9.9 -9.999 -99.9 -99.99 -9.99
2018/10/19 01:24 EDT    3.54   2.99 -999 -999 -999  45.3  58.6 1027.5 -9.9 -9.999 -99.9 -99.99 -9.99
2018/10/19 01:30 EDT    3.43   2.88 -999 -999 -999  45.0  58.6 1027.5 -9.9 -9.999 -99.9 -99.99 -9.99
2018/10/19 01:36 EDT    3.32   2.77 -999 -999 -999  44.8  58.6 1027.5 -9.9 -9.999 -99.9 -99.99 -9.99
2018/10/19 01:42 EDT    3.22   2.65 -999 -999 -999  44.8  58.6 1027.5 -9.9 -9.999 -99.9 -99.99 -9.99
2018/10/19 01:48 EDT    3.11   2.55 -999 -999 -999  44.6  58.6 1027.5 -9.9 -9.999 -99.9 -99.99 -9.99
2018/10/19 01:54 EDT    3.01   2.44 -999 -999 -999  44.6  58.6 1027.5 -9.9 -9.999 -99.9 -99.99 -9.99
2018/10/19 02:00 EDT    2.91   2.33 -999 -999 -999  44.6  58.6 1027.6 -9.9 -9.999 -99.9 -99.99 -9.99
2018/10/19 02:06 EDT    2.81   2.22 -999 -999 -999  44.6  58.6 1027.5 -9.9 -9.999 -99.9 -99.99 -9.99
2018/10/19 02:12 EDT    2.70   2.12 -999 -999 -999  44.4  58.6 1027.5 -9.9 -9.999 -99.9 -99.99 -9.99
2018/10/19 02:18 EDT    2.60   2.01 -999 -999 -999  44.4  58.6 1027.5 -9.9 -9.999 -99.9 -99.99 -9.99
2018/10/19 02:24 EDT    2.50   1.90 -999 -999 -999  44.4  58.6 1027.6 -9.9 -9.999 -99.9 -99.99 -9.99
2018/10/19 02:30 EDT    2.41   1.80 -999 -999 -999  44.2  58.6 1027.6 -9.9 -9.999 -99.9 -99.99 -9.99
2018/10/19 02:36 EDT    2.31   1.68 -999 -999 -999  44.2  58.6 1027.5 -9.9 -9.999 -99.9 -99.99 -9.99
2018/10/19 02:42 EDT    2.21   1.59 -999 -999 -999  44.1  58.6 1027.5 -9.9 -9.999 -99.9 -99.99 -9.99
2018/10/19 02:48 EDT    2.11   1.48 -999 -999 -999  43.9  58.6 1027.4 -9.9 -9.999 -99.9 -99.99 -9.99
2018/10/19 02:54 EDT    2.01   1.38 -999 -999 -999  43.7  58.6 1027.4 -9.9 -9.999 -99.9 -99.99 -9.99
2018/10/19 03:00 EDT    1.91   1.28 -999 -999 -999  43.7  58.6 1027.3 -9.9 -9.999 -99.9 -99.99 -9.99
2018/10/19 03:06 EDT    1.81   1.18 -999 -999 -999  43.7  58.6 1027.2 -9.9 -9.999 -99.9 -99.99 -9.99
2018/10/19 03:12 EDT    1.71   1.08 -999 -999 -999  43.5  58.6 1027.3 -9.9 -9.999 -99.9 -99.99 -9.99
2018/10/19 03:18 EDT    1.61   0.98 -999 -999 -999  43.3  58.6 1027.3 -9.9 -9.999 -99.9 -99.99 -9.99
2018/10/19 03:24 EDT    1.51   0.89 -999 -999 -999  43.2  58.6 1027.3 -9.9 -9.999 -99.9 -99.99 -9.99
2018/10/19 03:30 EDT    1.42   0.80 -999 -999 -999  43.2  58.6 1027.2 -9.9 -9.999 -99.9 -99.99 -9.99
2018/10/19 03:36 EDT    1.32   0.71 -999 -999 -999  43.2  58.6 1027.2 -9.9 -9.999 -99.9 -99.99 -9.99
2018/10/19 03:42 EDT    1.23   0.62 -999 -999 -999  43.0  58.6 1027.1 -9.9 -9.999 -99.9 -99.99 -9.99
2018/10/19 03:48 EDT    1.15   0.53 -999 -999 -999  42.8  58.6 1027.0 -9.9 -9.999 -99.9 -99.99 -9.99
2018/10/19 03:54 EDT    1.07   0.45 -999 -999 -999  42.8  58.6 1027.0 -9.9 -9.999 -99.9 -99.99 -9.99
2018/10/19 04:00 EDT    0.99   0.37 -999 -999 -999  42.8  58.6 1027.0 -9.9 -9.999 -99.9 -99.99 -9.99
2018/10/19 04:06 EDT    0.92   0.29 -999 -999 -999  42.8  58.6 1027.0 -9.9 -9.999 -99.9 -99.99 -9.99
2018/10/19 04:12 EDT    0.86   0.21 -999 -999 -999  43.0  58.6 1027.0 -9.9 -9.999 -99.9 -99.99 -9.99
2018/10/19 04:18 EDT    0.81   0.14 -999 -999 -999  43.0  58.6 1027.0 -9.9 -9.999 -99.9 -99.99 -9.99
2018/10/19 04:24 EDT    0.76   0.07 -999 -999 -999  43.0  58.6 1027.0 -9.9 -9.999 -99.9 -99.99 -9.99
2018/10/19 04:30 EDT    0.73   0.01 -999 -999 -999  43.0  58.6 1027.0 -9.9 -9.999 -99.9 -99.99 -9.99
2018/10/19 04:36 EDT    0.71  -0.04 -999 -999 -999  43.0  58.6 1027.0 -9.9 -9.999 -99.9 -99.99 -9.99
2018/10/19 04:42 EDT    0.70  -0.09 -999 -999 -999  42.8  58.6 1027.0 -9.9 -9.999 -99.9 -99.99 -9.99
2018/10/19 04:48 EDT    0.71  -0.12 -999 -999 -999  42.8  58.6 1027.0 -9.9 -9.999 -99.9 -99.99 -9.99
2018/10/19 04:54 EDT    0.72  -0.14 -999 -999 -999  42.6  58.6 1027.0 -9.9 -9.999 -99.9 -99.99 -9.99
2018/10/19 05:00 EDT    0.76  -0.14 -999 -999 -999  42.6  58.5 1027.1 -9.9 -9.999 -99.9 -99.99 -9.99
2018/10/19 05:06 EDT    0.80  -0.12 -999 -999 -999  42.6  58.5 1027.0 -9.9 -9.999 -99.9 -99.99 -9.99
2018/10/19 05:12 EDT    0.85  -0.08 -999 -999 -999  42.3  58.5 1027.0 -9.9 -9.999 -99.9 -99.99 -9.99
2018/10/19 05:18 EDT    0.92   0.01 -999 -999 -999  42.1  58.5 1027.1 -9.9 -9.999 -99.9 -99.99 -9.99
2018/10/19 05:24 EDT    1.00   0.12 -999 -999 -999  42.1  58.5 1027.0 -9.9 -9.999 -99.9 -99.99 -9.99
2018/10/19 05:30 EDT    1.10   0.24 -999 -999 -999  42.4  58.5 1027.1 -9.9 -9.999 -99.9 -99.99 -9.99
2018/10/19 05:36 EDT    1.20   0.41 -999 -999 -999  42.6  58.5 1027.0 -9.9 -9.999 -99.9 -99.99 -9.99
2018/10/19 05:42 EDT    1.31   0.61 -999 -999 -999  42.6  58.5 1027.1 -9.9 -9.999 -99.9 -99.99 -9.99
2018/10/19 05:48 EDT    1.43   0.81 -999 -999 -999  42.6  58.5 1027.1 -9.9 -9.999 -99.9 -99.99 -9.99
2018/10/19 05:54 EDT    1.55   1.02 -999 -999 -999  42.6  58.5 1027.1 -9.9 -9.999 -99.9 -99.99 -9.99
2018/10/19 06:00 EDT    1.68   1.23 -999 -999 -999  42.6  58.5 1027.2 -9.9 -9.999 -99.9 -99.99 -9.99
2018/10/19 06:06 EDT    1.82   1.42 -999 -999 -999  42.8  58.3 1027.2 -9.9 -9.999 -99.9 -99.99 -9.99
2018/10/19 06:12 EDT    1.95   1.61 -999 -999 -999  42.6  58.3 1027.2 -9.9 -9.999 -99.9 -99.99 -9.99
2018/10/19 06:18 EDT    2.09   1.80 -999 -999 -999  42.6  58.3 1027.2 -9.9 -9.999 -99.9 -99.99 -9.99
2018/10/19 06:24 EDT    2.23 -99.99 -999 -999 -999 -99.9 -99.9 -999.9 -9.9 -9.999 -99.9 -99.99 -9.99
2018/10/19 06:30 EDT    2.37 -99.99 -999 -999 -999 -99.9 -99.9 -999.9 -9.9 -9.999 -99.9 -99.99 -9.99
2018/10/19 06:36 EDT    2.50 -99.99 -999 -999 -999 -99.9 -99.9 -999.9 -9.9 -9.999 -99.9 -99.99 -9.99
2018/10/19 06:42 EDT    2.63 -99.99 -999 -999 -999 -99.9 -99.9 -999.9 -9.9 -9.999 -99.9 -99.99 -9.99
2018/10/19 06:48 EDT    2.76   2.60 -999 -999 -999  42.1  58.1 1027.2 -9.9 -9.999 -99.9 -99.99 -9.99
2018/10/19 06:54 EDT    2.89   2.74 -999 -999 -999  42.1  58.1 1027.1 -9.9 -9.999 -99.9 -99.99 -9.99
2018/10/19 07:00 EDT    3.01   2.88 -999 -999 -999  42.3  58.1 1027.1 -9.9 -9.999 -99.9 -99.99 -9.99
2018/10/19 07:06 EDT    3.13   3.01 -999 -999 -999  42.4  58.1 1027.1 -9.9 -9.999 -99.9 -99.99 -9.99
2018/10/19 07:12 EDT    3.24   3.14 -999 -999 -999  42.3  58.1 1027.2 -9.9 -9.999 -99.9 -99.99 -9.99
2018/10/19 07:18 EDT    3.35   3.27 -999 -999 -999  42.3  58.1 1027.2 -9.9 -9.999 -99.9 -99.99 -9.99
2018/10/19 07:24 EDT    3.46   3.40 -999 -999 -999  42.3  58.1 1027.2 -9.9 -9.999 -99.9 -99.99 -9.99
2018/10/19 07:30 EDT    3.56   3.54 -999 -999 -999  42.6  57.9 1027.2 -9.9 -9.999 -99.9 -99.99 -9.99
2018/10/19 07:36 EDT    3.66   3.67 -999 -999 -999  43.0  57.9 1027.2 -9.9 -9.999 -99.9 -99.99 -9.99
2018/10/19 07:42 EDT    3.76   3.80 -999 -999 -999  43.9  57.9 1027.3 -9.9 -9.999 -99.9 -99.99 -9.99
2018/10/19 07:48 EDT    3.86   3.95 -999 -999 -999  44.8  57.9 1027.2 -9.9 -9.999 -99.9 -99.99 -9.99
2018/10/19 07:54 EDT    3.96   4.09 -999 -999 -999  45.5  57.9 1027.2 -9.9 -9.999 -99.9 -99.99 -9.99
2018/10/19 08:00 EDT    4.05   4.23 -999 -999 -999  46.4  57.9 1027.3 -9.9 -9.999 -99.9 -99.99 -9.99
2018/10/19 08:06 EDT    4.15   4.36 -999 -999 -999  46.8  57.9 1027.3 -9.9 -9.999 -99.9 -99.99 -9.99
2018/10/19 08:12 EDT    4.25   4.48 -999 -999 -999  47.3  57.9 1027.3 -9.9 -9.999 -99.9 -99.99 -9.99
2018/10/19 08:18 EDT    4.36   4.61 -999 -999 -999  47.7  57.9 1027.2 -9.9 -9.999 -99.9 -99.99 -9.99
2018/10/19 08:24 EDT    4.46   4.72 -999 -999 -999  48.4  57.7 1027.2 -9.9 -9.999 -99.9 -99.99 -9.99
2018/10/19 08:30 EDT    4.57   4.84 -999 -999 -999  49.1  57.7 1027.3 -9.9 -9.999 -99.9 -99.99 -9.99
2018/10/19 08:36 EDT    4.67   4.96 -999 -999 -999  49.5  57.7 1027.2 -9.9 -9.999 -99.9 -99.99 -9.99
2018/10/19 08:42 EDT    4.78   5.07 -999 -999 -999  49.8  57.7 1027.2 -9.9 -9.999 -99.9 -99.99 -9.99
2018/10/19 08:48 EDT    4.89   5.17 -999 -999 -999  50.4  57.7 1027.3 -9.9 -9.999 -99.9 -99.99 -9.99
2018/10/19 08:54 EDT    5.00   5.28 -999 -999 -999  50.2  57.7 1027.3 -9.9 -9.999 -99.9 -99.99 -9.99
2018/10/19 09:00 EDT    5.11   5.37 -999 -999 -999  51.3  57.7 1027.2 -9.9 -9.999 -99.9 -99.99 -9.99
2018/10/19 09:06 EDT    5.22   5.46 -999 -999 -999  52.0  57.7 1027.1 -9.9 -9.999 -99.9 -99.99 -9.99
2018/10/19 09:12 EDT    5.33   5.55 -999 -999 -999  52.2  57.7 1027.0 -9.9 -9.999 -99.9 -99.99 -9.99
2018/10/19 09:18 EDT    5.44   5.64 -999 -999 -999  53.1  57.7 1026.9 -9.9 -9.999 -99.9 -99.99 -9.99
2018/10/19 09:24 EDT    5.54   5.73 -999 -999 -999  53.4  57.7 1026.8 -9.9 -9.999 -99.9 -99.99 -9.99
2018/10/19 09:30 EDT    5.63   5.83 -999 -999 -999  52.5  57.6 1026.8 -9.9 -9.999 -99.9 -99.99 -9.99
2018/10/19 09:36 EDT    5.72   5.92 -999 -999 -999  52.3  57.6 1026.8 -9.9 -9.999 -99.9 -99.99 -9.99
2018/10/19 09:42 EDT    5.81   6.01 -999 -999 -999  52.5  57.6 1026.7 -9.9 -9.999 -99.9 -99.99 -9.99
2018/10/19 09:48 EDT    5.88   6.09 -999 -999 -999  52.9  57.6 1026.6 -9.9 -9.999 -99.9 -99.99 -9.99
2018/10/19 09:54 EDT    5.95   6.17 -999 -999 -999  53.6  57.6 1026.6 -9.9 -9.999 -99.9 -99.99 -9.99
2018/10/19 10:00 EDT    6.01   6.23 -999 -999 -999  53.6  57.6 1026.6 -9.9 -9.999 -99.9 -99.99 -9.99
2018/10/19 10:06 EDT    6.06   6.26 -999 -999 -999  54.0  57.6 1026.5 -9.9 -9.999 -99.9 -99.99 -9.99
2018/10/19 10:12 EDT    6.09   6.32 -999 -999 -999  54.7  57.6 1026.5 -9.9 -9.999 -99.9 -99.99 -9.99
2018/10/19 10:18 EDT    6.12   6.35 -999 -999 -999  55.6  57.6 1026.4 -9.9 -9.999 -99.9 -99.99 -9.99
2018/10/19 10:24 EDT    6.13   6.34 -999 -999 -999  55.8  57.6 1026.4 -9.9 -9.999 -99.9 -99.99 -9.99
2018/10/19 10:30 EDT    6.14   6.32 -999 -999 -999  56.5  57.6 1026.3 -9.9 -9.999 -99.9 -99.99 -9.99
2018/10/19 10:36 EDT    6.13   6.32 -999 -999 -999  56.3  57.6 1026.1 -9.9 -9.999 -99.9 -99.99 -9.99
2018/10/19 10:42 EDT    6.12   6.30 -999 -999 -999  56.8  57.6 1026.2 -9.9 -9.999 -99.9 -99.99 -9.99
2018/10/19 10:48 EDT    6.09   6.25 -999 -999 -999  56.5  57.6 1026.1 -9.9 -9.999 -99.9 -99.99 -9.99
2018/10/19 10:54 EDT    6.05   6.21 -999 -999 -999  56.8  57.6 1025.9 -9.9 -9.999 -99.9 -99.99 -9.99
2018/10/19 11:00 EDT    6.01   6.14 -999 -999 -999  57.7  57.6 1025.8 -9.9 -9.999 -99.9 -99.99 -9.99
2018/10/19 11:06 EDT    5.95   6.07 -999 -999 -999  57.9  57.6 1025.7 -9.9 -9.999 -99.9 -99.99 -9.99
2018/10/19 11:12 EDT    5.89   6.00 -999 -999 -999  58.1  57.6 1025.5 -9.9 -9.999 -99.9 -99.99 -9.99
2018/10/19 11:18 EDT    5.82   5.91 -999 -999 -999  58.6  57.6 1025.4 -9.9 -9.999 -99.9 -99.99 -9.99
2018/10/19 11:24 EDT    5.74   5.82 -999 -999 -999  58.6  57.6 1025.3 -9.9 -9.999 -99.9 -99.99 -9.99
2018/10/19 11:30 EDT    5.66   5.72 -999 -999 -999  59.2  57.6 1025.2 -9.9 -9.999 -99.9 -99.99 -9.99
2018/10/19 11:36 EDT    5.57   5.62 -999 -999 -999  59.7  57.7 1025.2 -9.9 -9.999 -99.9 -99.99 -9.99
2018/10/19 11:42 EDT    5.48   5.54 -999 -999 -999  60.4  57.7 1024.9 -9.9 -9.999 -99.9 -99.99 -9.99
2018/10/19 11:48 EDT    5.38   5.44 -999 -999 -999  61.2  57.7 1024.8 -9.9 -9.999 -99.9 -99.99 -9.99
2018/10/19 11:54 EDT    5.28   5.31 -999 -999 -999  61.0  57.7 1024.7 -9.9 -9.999 -99.9 -99.99 -9.99
2018/10/19 12:00 EDT    5.18   5.21 -999 -999 -999  61.0  57.7 1024.6 -9.9 -9.999 -99.9 -99.99 -9.99
2018/10/19 12:06 EDT    5.07   5.10 -999 -999 -999  60.8  57.7 1024.5 -9.9 -9.999 -99.9 -99.99 -9.99
2018/10/19 12:12 EDT    4.96   5.01 -999 -999 -999  60.6  57.7 1024.4 -9.9 -9.999 -99.9 -99.99 -9.99
2018/10/19 12:18 EDT    4.85   4.91 -999 -999 -999  60.8  57.7 1024.3 -9.9 -9.999 -99.9 -99.99 -9.99
2018/10/19 12:24 EDT    4.74   4.79 -999 -999 -999  61.2  57.7 1024.1 -9.9 -9.999 -99.9 -99.99 -9.99
2018/10/19 12:30 EDT    4.63   4.70 -999 -999 -999  60.8  57.7 1023.9 -9.9 -9.999 -99.9 -99.99 -9.99
2018/10/19 12:36 EDT    4.51   4.58 -999 -999 -999  61.0  57.7 1023.8 -9.9 -9.999 -99.9 -99.99 -9.99
2018/10/19 12:42 EDT    4.39   4.48 -999 -999 -999  61.3  57.7 1023.6 -9.9 -9.999 -99.9 -99.99 -9.99
2018/10/19 12:48 EDT    4.28   4.39 -999 -999 -999  61.3  57.7 1023.5 -9.9 -9.999 -99.9 -99.99 -9.99
2018/10/19 12:54 EDT    4.16   4.29 -999 -999 -999  61.9  57.7 1023.3 -9.9 -9.999 -99.9 -99.99 -9.99
2018/10/19 13:00 EDT    4.04   4.20 -999 -999 -999  62.2  57.9 1023.1 -9.9 -9.999 -99.9 -99.99 -9.99
2018/10/19 13:06 EDT    3.92   4.10 -999 -999 -999  61.2  57.9 1023.0 -9.9 -9.999 -99.9 -99.99 -9.99
2018/10/19 13:12 EDT    3.81   3.99 -999 -999 -999  61.0  57.9 1022.9 -9.9 -9.999 -99.9 -99.99 -9.99
2018/10/19 13:18 EDT    3.69   3.89 -999 -999 -999  61.2  58.1 1022.7 -9.9 -9.999 -99.9 -99.99 -9.99
2018/10/19 13:24 EDT    3.57   3.78 -999 -999 -999  61.3  58.1 1022.6 -9.9 -9.999 -99.9 -99.99 -9.99
2018/10/19 13:30 EDT    3.46   3.68 -999 -999 -999  62.2  58.1 1022.4 -9.9 -9.999 -99.9 -99.99 -9.99
2018/10/19 13:36 EDT    3.34   3.58 -999 -999 -999  62.6  58.1 1022.3 -9.9 -9.999 -99.9 -99.99 -9.99
2018/10/19 13:42 EDT    3.23   3.48 -999 -999 -999  63.1  58.1 1022.2 -9.9 -9.999 -99.9 -99.99 -9.99
2018/10/19 13:48 EDT    3.12   3.38 -999 -999 -999  62.6  58.3 1022.2 -9.9 -9.999 -99.9 -99.99 -9.99
2018/10/19 13:54 EDT    3.01   3.28 -999 -999 -999  62.4  58.1 1022.1 -9.9 -9.999 -99.9 -99.99 -9.99
2018/10/19 14:00 EDT    2.90   3.19 -999 -999 -999  62.4  58.1 1021.9 -9.9 -9.999 -99.9 -99.99 -9.99
2018/10/19 14:06 EDT    2.79   3.09 -999 -999 -999  61.5  58.1 1021.7 -9.9 -9.999 -99.9 -99.99 -9.99
2018/10/19 14:12 EDT    2.69   3.01 -999 -999 -999  61.0  58.1 1021.3 -9.9 -9.999 -99.9 -99.99 -9.99
2018/10/19 14:18 EDT    2.58   2.90 -999 -999 -999  60.8  58.3 1021.3 -9.9 -9.999 -99.9 -99.99 -9.99
2018/10/19 14:24 EDT    2.48   2.80 -999 -999 -999  60.8  58.3 1021.0 -9.9 -9.999 -99.9 -99.99 -9.99
2018/10/19 14:30 EDT    2.39   2.71 -999 -999 -999  61.0  58.3 1020.9 -9.9 -9.999 -99.9 -99.99 -9.99
2018/10/19 14:36 EDT    2.29   2.61 -999 -999 -999  61.5  58.3 1020.7 -9.9 -9.999 -99.9 -99.99 -9.99
2018/10/19 14:42 EDT    2.20   2.51 -999 -999 -999  61.3  58.3 1020.4 -9.9 -9.999 -99.9 -99.99 -9.99
2018/10/19 14:48 EDT    2.10   2.41 -999 -999 -999  61.7  58.3 1020.1 -9.9 -9.999 -99.9 -99.99 -9.99
2018/10/19 14:54 EDT    2.01   2.30 -999 -999 -999  62.2  58.3 1020.1 -9.9 -9.999 -99.9 -99.99 -9.99
2018/10/19 15:00 EDT    1.92   2.21 -999 -999 -999  62.2  58.3 1020.0 -9.9 -9.999 -99.9 -99.99 -9.99
2018/10/19 15:06 EDT    1.83   2.11 -999 -999 -999  62.2  58.3 1020.0 -9.9 -9.999 -99.9 -99.99 -9.99
2018/10/19 15:12 EDT    1.75   2.01 -999 -999 -999  62.1  58.5 1020.1 -9.9 -9.999 -99.9 -99.99 -9.99
2018/10/19 15:18 EDT    1.66   1.92 -999 -999 -999  62.1  58.5 1020.0 -9.9 -9.999 -99.9 -99.99 -9.99
2018/10/19 15:24 EDT    1.57   1.82 -999 -999 -999  62.1  58.3 1019.6 -9.9 -9.999 -99.9 -99.99 -9.99
2018/10/19 15:30 EDT    1.49   1.74 -999 -999 -999  61.9  58.3 1019.5 -9.9 -9.999 -99.9 -99.99 -9.99
2018/10/19 15:36 EDT    1.41   1.65 -999 -999 -999  61.9  58.3 1019.5 -9.9 -9.999 -99.9 -99.99 -9.99
2018/10/19 15:42 EDT    1.33   1.56 -999 -999 -999  61.7  58.3 1019.6 -9.9 -9.999 -99.9 -99.99 -9.99
2018/10/19 15:48 EDT    1.25   1.47 -999 -999 -999  61.2  58.5 1019.5 -9.9 -9.999 -99.9 -99.99 -9.99
2018/10/19 15:54 EDT    1.18   1.39 -999 -999 -999  61.2  58.3 1019.3 -9.9 -9.999 -99.9 -99.99 -9.99
2018/10/19 16:00 EDT    1.10   1.32 -999 -999 -999  61.0  58.5 1019.1 -9.9 -9.999 -99.9 -99.99 -9.99
2018/10/19 16:06 EDT    1.04   1.25 -999 -999 -999  60.8  58.5 1019.0 -9.9 -9.999 -99.9 -99.99 -9.99
2018/10/19 16:12 EDT    0.97   1.17 -999 -999 -999  60.8  58.5 1019.1 -9.9 -9.999 -99.9 -99.99 -9.99
2018/10/19 16:18 EDT    0.92   1.10 -999 -999 -999  60.8  58.5 1019.0 -9.9 -9.999 -99.9 -99.99 -9.99
2018/10/19 16:24 EDT    0.87 -99.99 -999 -999 -999 -99.9 -99.9 -999.9 -9.9 -9.999 -99.9 -99.99 -9.99
2018/10/19 16:30 EDT    0.82 -99.99 -999 -999 -999 -99.9 -99.9 -999.9 -9.9 -9.999 -99.9 -99.99 -9.99
2018/10/19 16:36 EDT    0.79 -99.99 -999 -999 -999 -99.9 -99.9 -999.9 -9.9 -9.999 -99.9 -99.99 -9.99
2018/10/19 16:42 EDT    0.76 -99.99 -999 -999 -999 -99.9 -99.9 -999.9 -9.9 -9.999 -99.9 -99.99 -9.99
2018/10/19 16:48 EDT    0.75 -99.99 -999 -999 -999 -99.9 -99.9 -999.9 -9.9 -9.999 -99.9 -99.99 -9.99
2018/10/19 16:54 EDT    0.75 -99.99 -999 -999 -999 -99.9 -99.9 -999.9 -9.9 -9.999 -99.9 -99.99 -9.99
2018/10/19 17:00 EDT    0.75 -99.99 -999 -999 -999 -99.9 -99.9 -999.9 -9.9 -9.999 -99.9 -99.99 -9.99
2018/10/19 17:06 EDT    0.77 -99.99 -999 -999 -999 -99.9 -99.9 -999.9 -9.9 -9.999 -99.9 -99.99 -9.99
2018/10/19 17:12 EDT    0.81 -99.99 -999 -999 -999 -99.9 -99.9 -999.9 -9.9 -9.999 -99.9 -99.99 -9.99
2018/10/19 17:18 EDT    0.86 -99.99 -999 -999 -999 -99.9 -99.9 -999.9 -9.9 -9.999 -99.9 -99.99 -9.99
2018/10/19 17:24 EDT    0.92 -99.99 -999 -999 -999 -99.9 -99.9 -999.9 -9.9 -9.999 -99.9 -99.99 -9.99
2018/10/19 17:30 EDT    0.99 -99.99 -999 -999 -999 -99.9 -99.9 -999.9 -9.9 -9.999 -99.9 -99.99 -9.99
2018/10/19 17:36 EDT    1.08 -99.99 -999 -999 -999 -99.9 -99.9 -999.9 -9.9 -9.999 -99.9 -99.99 -9.99
2018/10/19 17:42 EDT    1.17 -99.99 -999 -999 -999 -99.9 -99.9 -999.9 -9.9 -9.999 -99.9 -99.99 -9.99
2018/10/19 17:48 EDT    1.28 -99.99 -999 -999 -999 -99.9 -99.9 -999.9 -9.9 -9.999 -99.9 -99.99 -9.99
2018/10/19 17:54 EDT    1.41 -99.99 -999 -999 -999 -99.9 -99.9 -999.9 -9.9 -9.999 -99.9 -99.99 -9.99
2018/10/19 18:00 EDT    1.54 -99.99 -999 -999 -999 -99.9 -99.9 -999.9 -9.9 -9.999 -99.9 -99.99 -9.99
2018/10/19 18:06 EDT    1.68 -99.99 -999 -999 -999 -99.9 -99.9 -999.9 -9.9 -9.999 -99.9 -99.99 -9.99
2018/10/19 18:12 EDT    1.82 -99.99 -999 -999 -999 -99.9 -99.9 -999.9 -9.9 -9.999 -99.9 -99.99 -9.99
2018/10/19 18:18 EDT    1.98 -99.99 -999 -999 -999 -99.9 -99.9 -999.9 -9.9 -9.999 -99.9 -99.99 -9.99
2018/10/19 18:24 EDT    2.14 -99.99 -999 -999 -999 -99.9 -99.9 -999.9 -9.9 -9.999 -99.9 -99.99 -9.99
2018/10/19 18:30 EDT    2.30 -99.99 -999 -999 -999 -99.9 -99.9 -999.9 -9.9 -9.999 -99.9 -99.99 -9.99
2018/10/19 18:36 EDT    2.46 -99.99 -999 -999 -999 -99.9 -99.9 -999.9 -9.9 -9.999 -99.9 -99.99 -9.99
2018/10/19 18:42 EDT    2.63 -99.99 -999 -999 -999 -99.9 -99.9 -999.9 -9.9 -9.999 -99.9 -99.99 -9.99
2018/10/19 18:48 EDT    2.79 -99.99 -999 -999 -999 -99.9 -99.9 -999.9 -9.9 -9.999 -99.9 -99.99 -9.99
2018/10/19 18:54 EDT    2.95 -99.99 -999 -999 -999 -99.9 -99.9 -999.9 -9.9 -9.999 -99.9 -99.99 -9.99
2018/10/19 19:00 EDT    3.11 -99.99 -999 -999 -999 -99.9 -99.9 -999.9 -9.9 -9.999 -99.9 -99.99 -9.99
2018/10/19 19:06 EDT    3.26 -99.99 -999 -999 -999 -99.9 -99.9 -999.9 -9.9 -9.999 -99.9 -99.99 -9.99
2018/10/19 19:12 EDT    3.41 -99.99 -999 -999 -999 -99.9 -99.9 -999.9 -9.9 -9.999 -99.9 -99.99 -9.99
2018/10/19 19:18 EDT    3.56 -99.99 -999 -999 -999 -99.9 -99.9 -999.9 -9.9 -9.999 -99.9 -99.99 -9.99
2018/10/19 19:24 EDT    3.69 -99.99 -999 -999 -999 -99.9 -99.9 -999.9 -9.9 -9.999 -99.9 -99.99 -9.99
2018/10/19 19:30 EDT    3.83 -99.99 -999 -999 -999 -99.9 -99.9 -999.9 -9.9 -9.999 -99.9 -99.99 -9.99
2018/10/19 19:36 EDT    3.96 -99.99 -999 -999 -999 -99.9 -99.9 -999.9 -9.9 -9.999 -99.9 -99.99 -9.99
2018/10/19 19:42 EDT    4.08 -99.99 -999 -999 -999 -99.9 -99.9 -999.9 -9.9 -9.999 -99.9 -99.99 -9.99
2018/10/19 19:48 EDT    4.20 -99.99 -999 -999 -999 -99.9 -99.9 -999.9 -9.9 -9.999 -99.9 -99.99 -9.99
2018/10/19 19:54 EDT    4.31 -99.99 -999 -999 -999 -99.9 -99.9 -999.9 -9.9 -9.999 -99.9 -99.99 -9.99
2018/10/19 20:00 EDT    4.42 -99.99 -999 -999 -999 -99.9 -99.9 -999.9 -9.9 -9.999 -99.9 -99.99 -9.99
2018/10/19 20:06 EDT    4.52 -99.99 -999 -999 -999 -99.9 -99.9 -999.9 -9.9 -9.999 -99.9 -99.99 -9.99
2018/10/19 20:12 EDT    4.63 -99.99 -999 -999 -999 -99.9 -99.9 -999.9 -9.9 -9.999 -99.9 -99.99 -9.99
2018/10/19 20:18 EDT    4.73 -99.99 -999 -999 -999 -99.9 -99.9 -999.9 -9.9 -9.999 -99.9 -99.99 -9.99
2018/10/19 20:24 EDT    4.83 -99.99 -999 -999 -999 -99.9 -99.9 -999.9 -9.9 -9.999 -99.9 -99.99 -9.99
2018/10/19 20:30 EDT    4.93 -99.99 -999 -999 -999 -99.9 -99.9 -999.9 -9.9 -9.999 -99.9 -99.99 -9.99
2018/10/19 20:36 EDT    5.03 -99.99 -999 -999 -999 -99.9 -99.9 -999.9 -9.9 -9.999 -99.9 -99.99 -9.99
2018/10/19 20:42 EDT    5.13 -99.99 -999 -999 -999 -99.9 -99.9 -999.9 -9.9 -9.999 -99.9 -99.99 -9.99
2018/10/19 20:48 EDT    5.23 -99.99 -999 -999 -999 -99.9 -99.9 -999.9 -9.9 -9.999 -99.9 -99.99 -9.99
2018/10/19 20:54 EDT    5.33 -99.99 -999 -999 -999 -99.9 -99.9 -999.9 -9.9 -9.999 -99.9 -99.99 -9.99
2018/10/19 21:00 EDT    5.43 -99.99 -999 -999 -999 -99.9 -99.9 -999.9 -9.9 -9.999 -99.9 -99.99 -9.99
2018/10/19 21:06 EDT    5.53 -99.99 -999 -999 -999 -99.9 -99.9 -999.9 -9.9 -9.999 -99.9 -99.99 -9.99
2018/10/19 21:12 EDT    5.63 -99.99 -999 -999 -999 -99.9 -99.9 -999.9 -9.9 -9.999 -99.9 -99.99 -9.99
2018/10/19 21:18 EDT    5.74 -99.99 -999 -999 -999 -99.9 -99.9 -999.9 -9.9 -9.999 -99.9 -99.99 -9.99
2018/10/19 21:24 EDT    5.84 -99.99 -999 -999 -999 -99.9 -99.9 -999.9 -9.9 -9.999 -99.9 -99.99 -9.99
2018/10/19 21:30 EDT    5.94 -99.99 -999 -999 -999 -99.9 -99.9 -999.9 -9.9 -9.999 -99.9 -99.99 -9.99
2018/10/19 21:36 EDT    6.03 -99.99 -999 -999 -999 -99.9 -99.9 -999.9 -9.9 -9.999 -99.9 -99.99 -9.99
2018/10/19 21:42 EDT    6.13 -99.99 -999 -999 -999 -99.9 -99.9 -999.9 -9.9 -9.999 -99.9 -99.99 -9.99
2018/10/19 21:48 EDT    6.22 -99.99 -999 -999 -999 -99.9 -99.9 -999.9 -9.9 -9.999 -99.9 -99.99 -9.99
2018/10/19 21:54 EDT    6.30 -99.99 -999 -999 -999 -99.9 -99.9 -999.9 -9.9 -9.999 -99.9 -99.99 -9.99
2018/10/19 22:00 EDT    6.38 -99.99 -999 -999 -999 -99.9 -99.9 -999.9 -9.9 -9.999 -99.9 -99.99 -9.99
2018/10/19 22:06 EDT    6.45 -99.99 -999 -999 -999 -99.9 -99.9 -999.9 -9.9 -9.999 -99.9 -99.99 -9.99
2018/10/19 22:12 EDT    6.52 -99.99 -999 -999 -999 -99.9 -99.9 -999.9 -9.9 -9.999 -99.9 -99.99 -9.99
2018/10/19 22:18 EDT    6.57 -99.99 -999 -999 -999 -99.9 -99.9 -999.9 -9.9 -9.999 -99.9 -99.99 -9.99
2018/10/19 22:24 EDT    6.62 -99.99 -999 -999 -999 -99.9 -99.9 -999.9 -9.9 -9.999 -99.9 -99.99 -9.99
2018/10/19 22:30 EDT    6.65 -99.99 -999 -999 -999 -99.9 -99.9 -999.9 -9.9 -9.999 -99.9 -99.99 -9.99

Revised: 08/08/2018
NOAA / National Ocean Service
Web site owner: Center for Operational Oceanographic Products and Services